Time;durP1;ratioP1;P1;durP2;ratioP2;P2;SDS_P1;SDS_P2;PMS_P1;PMS_P2;Temp;Humidity;BMP_temperature;BMP_pressure;BME280_temperature;BME280_humidity;BME280_pressure;Samples;Min_cycle;Max_cycle;Signal;HPM_P1;HPM_P2
2023/04/24 00:00:50;;;;;;;;;;;;;;;-140.72;100.00;52938.75;5027018;28;19921;-69
2023/04/24 00:03:16;;;;;;;;;;;;;;;-140.72;100.00;52928.63;5025740;28;20303;-69
2023/04/24 00:05:41;;;;;;;;;;;;;;;-140.72;100.00;52948.91;5026229;28;19925;-69
2023/04/24 00:08:06;;;;;;;;;;;;;;;-140.72;100.00;52932.66;5016535;28;19921;-69
2023/04/24 00:10:32;;;;;;;;;;;;;;;-140.72;100.00;52918.47;5031819;28;20511;-69
2023/04/24 00:12:57;;;;;;;;;;;;;;;-140.72;100.00;52948.91;5020907;28;19928;-69
2023/04/24 00:15:22;;;;;;;;;;;;;;;-140.72;100.00;52952.97;5034773;28;19974;-69
2023/04/24 00:17:48;;;;;;;;;;;;;;;-140.72;100.00;52910.34;5025869;28;19928;-69
2023/04/24 00:20:14;;;;;;;;;;;;;;;-140.72;100.00;52936.72;5018375;28;19949;-69
2023/04/24 00:22:40;;;;;;;;;;;;;;;-140.72;100.00;52969.19;5026975;28;19921;-69
2023/04/24 00:25:05;;;;;;;;;;;;;;;-140.72;100.00;52991.53;5037423;28;20417;-69
2023/04/24 00:27:31;;;;;;;;;;;;;;;-140.72;100.00;52955.00;5019031;28;20402;-69
2023/04/24 00:29:56;;;;;;;;;;;;;;;-140.72;100.00;52940.78;5027976;28;19921;-70
2023/04/24 00:32:21;;;;;;;;;;;;;;;-140.72;100.00;52910.34;5023896;28;19921;-69
2023/04/24 00:34:46;;;;;;;;;;;;;;;-140.72;100.00;52926.59;5022869;28;19969;-69
2023/04/24 00:37:11;;;;;;;;;;;;;;;-140.72;100.00;52944.84;5019326;28;19936;-70
2023/04/24 00:39:37;;;;;;;;;;;;;;;-140.72;100.00;52975.28;5021494;28;19921;-70
2023/04/24 00:42:02;;;;;;;;;;;;;;;-140.72;100.00;52957.03;5026459;28;19922;-69
2023/04/24 00:44:27;;;;;;;;;;;;;;;-140.72;100.00;53005.72;5030074;28;20327;-69
2023/04/24 00:46:54;;;;;;;;;;;;;;;-140.72;100.00;52950.94;5027001;28;19986;-69
2023/04/24 00:49:20;;;;;;;;;;;;;;;-140.72;100.00;52995.59;5025458;28;20016;-70
2023/04/24 00:51:45;;;;;;;;;;;;;;;-140.72;100.00;52987.47;5026294;28;19979;-70
2023/04/24 00:54:11;;;;;;;;;;;;;;;-140.72;100.00;52973.25;5027524;28;20375;-69
2023/04/24 00:56:36;;;;;;;;;;;;;;;-140.72;100.00;52922.53;5036970;27;19928;-69
2023/04/24 00:59:11;;;;;;;;;;;;;;;-140.72;100.00;52920.50;5032419;28;19945;-70
2023/04/24 01:01:36;;;;;;;;;;;;;;;-140.72;100.00;52914.41;5032027;28;19928;-69
2023/04/24 01:04:02;;;;;;;;;;;;;;;-140.72;100.00;52944.84;5024703;28;20371;-69
2023/04/24 01:06:28;;;;;;;;;;;;;;;-140.72;100.00;52957.03;5023202;28;19928;-69
2023/04/24 01:08:53;;;;;;;;;;;;;;;-140.72;100.00;52938.75;5031412;28;20442;-70
2023/04/24 01:11:19;;;;;;;;;;;;;;;-140.72;100.00;52952.97;5024960;28;20391;-70
2023/04/24 01:13:44;;;;;;;;;;;;;;;-140.72;100.00;52955.00;5028553;28;20535;-69
2023/04/24 01:16:10;;;;;;;;;;;;;;;-140.72;100.00;52975.28;5033537;28;19965;-69
2023/04/24 01:18:35;;;;;;;;;;;;;;;-140.72;100.00;52944.84;5026885;28;19921;-70
2023/04/24 01:21:02;;;;;;;;;;;;;;;-140.72;100.00;52955.00;5029949;28;19932;-69
2023/04/24 01:23:28;;;;;;;;;;;;;;;-140.72;100.00;52955.00;5028378;28;19960;-70
2023/04/24 01:25:53;;;;;;;;;;;;;;;-140.72;100.00;52932.66;5023460;28;19980;-69
2023/04/24 01:28:19;;;;;;;;;;;;;;;-140.72;100.00;52971.22;5027207;28;20401;-69
2023/04/24 01:30:45;;;;;;;;;;;;;;;-140.72;100.00;52965.16;5030702;28;19939;-69
2023/04/24 01:33:10;;;;;;;;;;;;;;;-140.72;100.00;52989.50;5028486;28;20295;-69
2023/04/24 01:35:37;;;;;;;;;;;;;;;-140.72;100.00;52983.41;5026947;28;19922;-69
2023/04/24 01:38:02;;;;;;;;;;;;;;;-140.72;100.00;52952.97;5034112;28;19922;-69
2023/04/24 01:40:27;;;;;;;;;;;;;;;-140.72;100.00;52934.69;5025787;28;19921;-70
2023/04/24 01:42:53;;;;;;;;;;;;;;;-140.72;100.00;52955.00;5026110;28;20032;-69
2023/04/24 01:45:18;;;;;;;;;;;;;;;-140.72;100.00;52946.88;5027539;28;20008;-69
2023/04/24 01:47:43;;;;;;;;;;;;;;;-140.72;100.00;52938.75;5029236;28;19956;-69
2023/04/24 01:50:09;;;;;;;;;;;;;;;-140.72;100.00;52965.16;5029176;28;20043;-69
2023/04/24 01:52:35;;;;;;;;;;;;;;;-140.72;100.00;52952.97;5032931;28;19928;-69
2023/04/24 01:55:01;;;;;;;;;;;;;;;-140.72;100.00;53015.88;5027524;28;19925;-70
2023/04/24 01:57:26;;;;;;;;;;;;;;;-140.72;100.00;52948.91;5025158;28;19959;-71
2023/04/24 01:59:51;;;;;;;;;;;;;;;-140.72;100.00;52979.34;5025513;28;20346;-69
2023/04/24 02:02:17;;;;;;;;;;;;;;;-140.72;100.00;52965.16;5022200;28;19921;-69
2023/04/24 02:04:42;;;;;;;;;;;;;;;-140.72;100.00;52985.44;5034961;28;19924;-69
2023/04/24 02:07:07;;;;;;;;;;;;;;;-140.72;100.00;52955.00;5027561;28;19921;-70
2023/04/24 02:09:33;;;;;;;;;;;;;;;-140.72;100.00;52955.00;5022726;28;19974;-69
2023/04/24 02:11:58;;;;;;;;;;;;;;;-140.72;100.00;52969.19;5027333;28;19970;-69
2023/04/24 02:14:23;;;;;;;;;;;;;;;-140.72;100.00;52950.94;5026441;28;20393;-69
2023/04/24 02:16:48;;;;;;;;;;;;;;;-140.72;100.00;52983.41;5030904;28;20031;-69
2023/04/24 02:19:14;;;;;;;;;;;;;;;-140.72;100.00;52955.00;5022894;28;19960;-69
2023/04/24 02:21:39;;;;;;;;;;;;;;;-140.72;100.00;52963.13;5025216;28;19925;-69
2023/04/24 02:24:05;;;;;;;;;;;;;;;-140.72;100.00;52995.59;5026890;28;19921;-69
2023/04/24 02:26:31;;;;;;;;;;;;;;;-140.72;100.00;52971.22;5027705;28;19926;-69
2023/04/24 02:28:56;;;;;;;;;;;;;;;-140.72;100.00;52989.50;5033137;28;19980;-69
2023/04/24 02:31:22;;;;;;;;;;;;;;;-140.72;100.00;52971.22;5032770;28;19926;-69
2023/04/24 02:33:47;;;;;;;;;;;;;;;-140.72;100.00;52948.91;5030046;28;19921;-68
2023/04/24 02:36:13;;;;;;;;;;;;;;;-140.72;100.00;52957.03;5034099;28;20302;-69
2023/04/24 02:38:38;;;;;;;;;;;;;;;-140.72;100.00;52977.31;5031711;28;19928;-68
2023/04/24 02:41:06;;;;;;;;;;;;;;;-140.72;100.00;53009.78;5028683;28;20391;-69
2023/04/24 02:43:31;;;;;;;;;;;;;;;-140.72;100.00;52946.88;5030437;28;19932;-69
2023/04/24 02:45:56;;;;;;;;;;;;;;;-140.72;100.00;52977.31;5031570;28;19921;-68
2023/04/24 02:48:21;;;;;;;;;;;;;;;-140.72;100.00;52950.94;5029861;28;19928;-69
2023/04/24 02:50:47;;;;;;;;;;;;;;;-140.72;100.00;52912.38;5023494;28;19965;-69
2023/04/24 02:53:13;;;;;;;;;;;;;;;-140.72;100.00;52963.13;5028095;28;19924;-71
2023/04/24 02:55:38;;;;;;;;;;;;;;;-140.72;100.00;52959.06;5024384;28;19962;-68
2023/04/24 02:58:04;;;;;;;;;;;;;;;-140.72;100.00;52971.22;5025155;28;19921;-68
2023/04/24 03:00:40;;;;;;;;;;;;;;;-140.72;100.00;52971.22;5026817;28;19922;-69
2023/04/24 03:03:06;;;;;;;;;;;;;;;-140.72;100.00;52971.22;5020304;28;19922;-69
2023/04/24 03:05:32;;;;;;;;;;;;;;;-140.72;100.00;52967.16;5026651;28;19925;-69
2023/04/24 03:07:57;;;;;;;;;;;;;;;-140.72;100.00;52997.63;5026508;28;20009;-69
2023/04/24 03:10:22;;;;;;;;;;;;;;;-140.72;100.00;52971.22;5022040;28;20386;-68
2023/04/24 03:12:47;;;;;;;;;;;;;;;-140.72;100.00;52983.41;5032998;27;20364;-68
2023/04/24 03:15:13;;;;;;;;;;;;;;;-140.72;100.00;52983.41;5063431;27;19931;-68
2023/04/24 03:17:38;;;;;;;;;;;;;;;-140.72;100.00;53034.16;5082864;27;20417;-69
2023/04/24 03:20:05;;;;;;;;;;;;;;;-140.72;100.00;52967.16;5067101;27;19926;-68
2023/04/24 03:22:32;;;;;;;;;;;;;;;-140.72;100.00;52975.28;5062728;27;20374;-68
2023/04/24 03:24:57;;;;;;;;;;;;;;;-140.72;100.00;52995.59;5058965;27;19936;-68
2023/04/24 03:27:23;;;;;;;;;;;;;;;-140.72;100.00;52971.22;5076645;27;19924;-68
2023/04/24 03:29:51;;;;;;;;;;;;;;;-140.72;100.00;52971.22;5034471;27;19921;-69
2023/04/24 03:32:16;;;;;;;;;;;;;;;-140.72;100.00;52979.34;5070584;27;19923;-68
2023/04/24 03:34:41;;;;;;;;;;;;;;;-140.72;100.00;53001.66;5078430;27;19925;-69
2023/04/24 03:37:07;;;;;;;;;;;;;;;-140.72;100.00;52955.00;5054410;27;19932;-69
2023/04/24 03:39:32;;;;;;;;;;;;;;;-140.72;100.00;52991.53;5052059;27;19924;-69
2023/04/24 03:41:57;;;;;;;;;;;;;;;-140.72;100.00;52952.97;5054776;27;19922;-68
2023/04/24 03:44:22;;;;;;;;;;;;;;;-140.72;100.00;52934.69;5048450;27;19921;-69
2023/04/24 03:46:48;;;;;;;;;;;;;;;-140.72;100.00;52999.66;5064979;27;20299;-69
2023/04/24 03:49:13;;;;;;;;;;;;;;;-140.72;100.00;52967.16;5068679;27;19927;-68
2023/04/24 03:51:38;;;;;;;;;;;;;;;-140.72;100.00;52965.16;5050594;27;19928;-69
2023/04/24 03:54:03;;;;;;;;;;;;;;;-140.72;100.00;52987.47;5050302;27;19968;-69
2023/04/24 03:56:28;;;;;;;;;;;;;;;-140.72;100.00;52952.97;5035179;27;19987;-69
2023/04/24 03:58:54;;;;;;;;;;;;;;;-140.72;100.00;53009.78;5067296;27;19920;-69
2023/04/24 04:01:20;;;;;;;;;;;;;;;-140.72;100.00;52965.16;5027422;28;19928;-69
2023/04/24 04:03:45;;;;;;;;;;;;;;;-140.72;100.00;52985.44;5029604;28;20290;-69
2023/04/24 04:06:12;;;;;;;;;;;;;;;-140.72;100.00;52950.94;5030762;28;19937;-68
2023/04/24 04:08:38;;;;;;;;;;;;;;;-140.72;100.00;53003.69;5029052;28;19928;-69
2023/04/24 04:11:03;;;;;;;;;;;;;;;-140.72;100.00;52977.31;5029274;28;19921;-70
2023/04/24 04:13:28;;;;;;;;;;;;;;;-140.72;100.00;52979.34;5029489;28;19921;-69
2023/04/24 04:15:53;;;;;;;;;;;;;;;-140.72;100.00;52959.06;5030743;27;19919;-69
2023/04/24 04:18:19;;;;;;;;;;;;;;;-140.72;100.00;52944.84;5024113;28;19960;-69
2023/04/24 04:20:44;;;;;;;;;;;;;;;-140.72;100.00;52987.47;5031346;28;19921;-69
2023/04/24 04:23:09;;;;;;;;;;;;;;;-140.72;100.00;52950.94;5030438;28;20404;-69
2023/04/24 04:25:34;;;;;;;;;;;;;;;-140.72;100.00;52971.22;5028943;28;19921;-70
2023/04/24 04:28:00;;;;;;;;;;;;;;;-140.72;100.00;52983.41;5030313;28;19967;-69
2023/04/24 04:30:25;;;;;;;;;;;;;;;-140.72;100.00;52975.28;5035239;28;19921;-69
2023/04/24 04:32:51;;;;;;;;;;;;;;;-140.72;100.00;52967.16;5024931;28;19926;-68
2023/04/24 04:35:16;;;;;;;;;;;;;;;-140.72;100.00;52979.34;5028497;28;20363;-69
2023/04/24 04:37:41;;;;;;;;;;;;;;;-140.72;100.00;52987.47;5027134;28;19917;-68
2023/04/24 04:40:07;;;;;;;;;;;;;;;-140.72;100.00;52950.94;5028884;28;19929;-70
2023/04/24 04:42:58;;;;;;;;;;;;;;;-140.72;100.00;53011.81;5037130;27;19965;-70
2023/04/24 04:45:24;;;;;;;;;;;;;;;-140.72;100.00;53003.69;5032163;27;20371;-70
2023/04/24 04:48:00;;;;;;;;;;;;;;;-140.72;100.00;52938.75;5033975;28;19917;-69
2023/04/24 04:50:26;;;;;;;;;;;;;;;-140.72;100.00;52991.53;5026191;28;20283;-69
2023/04/24 04:52:51;;;;;;;;;;;;;;;-140.72;100.00;52959.06;5025040;28;19926;-70
2023/04/24 04:55:18;;;;;;;;;;;;;;;-140.72;100.00;52999.66;5028082;28;20071;-69
2023/04/24 04:57:43;;;;;;;;;;;;;;;-140.72;100.00;53003.69;5031270;28;19943;-69
2023/04/24 05:00:10;;;;;;;;;;;;;;;-140.72;100.00;53005.72;5026183;28;19922;-70
2023/04/24 05:02:36;;;;;;;;;;;;;;;-140.72;100.00;52967.16;5026592;28;19921;-71
2023/04/24 05:05:01;;;;;;;;;;;;;;;-140.72;100.00;52957.03;5032666;28;19932;-71
2023/04/24 05:07:26;;;;;;;;;;;;;;;-140.72;100.00;52969.19;5031726;28;19929;-70
2023/04/24 05:09:52;;;;;;;;;;;;;;;-140.72;100.00;52950.94;5026369;28;19921;-70
2023/04/24 05:12:17;;;;;;;;;;;;;;;-140.72;100.00;53019.94;5022510;28;20297;-70
2023/04/24 05:14:42;;;;;;;;;;;;;;;-140.72;100.00;52985.44;5030357;28;19974;-70
2023/04/24 05:17:07;;;;;;;;;;;;;;;-140.72;100.00;52991.53;5026917;28;19921;-70
2023/04/24 05:19:35;;;;;;;;;;;;;;;-140.72;100.00;52967.16;5026397;28;20299;-69
2023/04/24 05:22:03;;;;;;;;;;;;;;;-140.72;100.00;52999.66;5027224;28;19928;-69
2023/04/24 05:24:28;;;;;;;;;;;;;;;-140.72;100.00;52979.34;5027512;28;20442;-70
2023/04/24 05:26:53;;;;;;;;;;;;;;;-140.72;100.00;52983.41;5024588;28;19921;-69
2023/04/24 05:29:19;;;;;;;;;;;;;;;-140.72;100.00;52995.59;5027048;28;20433;-69
2023/04/24 05:31:44;;;;;;;;;;;;;;;-140.72;100.00;53013.84;5028437;28;20290;-69
2023/04/24 05:34:10;;;;;;;;;;;;;;;-140.72;100.00;52975.28;5030872;28;20394;-70
2023/04/24 05:36:35;;;;;;;;;;;;;;;-140.72;100.00;52973.25;5034823;28;19929;-68
2023/04/24 05:39:00;;;;;;;;;;;;;;;-140.72;100.00;52965.16;5041479;28;19955;-68
2023/04/24 05:41:25;;;;;;;;;;;;;;;-140.72;100.00;52957.03;5030054;28;19928;-68
2023/04/24 05:43:51;;;;;;;;;;;;;;;-140.72;100.00;53007.75;5026671;28;20371;-69
2023/04/24 05:46:16;;;;;;;;;;;;;;;-140.72;100.00;53013.84;5034962;28;20059;-69
2023/04/24 05:48:41;;;;;;;;;;;;;;;-140.72;100.00;52965.16;5021247;28;19961;-69
2023/04/24 05:51:06;;;;;;;;;;;;;;;-140.72;100.00;53005.72;5024571;28;19929;-69
2023/04/24 05:53:31;;;;;;;;;;;;;;;-140.72;100.00;53011.81;5028766;28;19928;-71
2023/04/24 05:55:57;;;;;;;;;;;;;;;-140.72;100.00;53044.28;5026498;28;19917;-69
2023/04/24 05:58:22;;;;;;;;;;;;;;;-140.72;100.00;53028.06;5024863;28;20020;-68
2023/04/24 06:00:47;;;;;;;;;;;;;;;-140.72;100.00;53005.72;5030998;28;19967;-69
2023/04/24 06:03:13;;;;;;;;;;;;;;;-140.72;100.00;52995.59;5033892;28;19921;-69
2023/04/24 06:05:38;;;;;;;;;;;;;;;-140.72;100.00;52995.59;5023847;28;19982;-69
2023/04/24 06:08:03;;;;;;;;;;;;;;;-140.72;100.00;52991.53;5032687;28;19921;-68
2023/04/24 06:10:28;;;;;;;;;;;;;;;-140.72;100.00;52979.34;5028338;28;19928;-68
2023/04/24 06:12:56;;;;;;;;;;;;;;;-140.72;100.00;52971.22;5022167;28;20378;-68
2023/04/24 06:15:21;;;;;;;;;;;;;;;-140.72;100.00;52948.91;5031553;28;19921;-69
2023/04/24 06:17:47;;;;;;;;;;;;;;;-140.72;100.00;53005.72;5076677;27;20408;-69
2023/04/24 06:20:21;;;;;;;;;;;;;;;-140.72;100.00;52965.16;5052027;27;20388;-69
2023/04/24 06:22:46;;;;;;;;;;;;;;;-140.72;100.00;53001.66;5033421;28;19924;-69
2023/04/24 06:25:12;;;;;;;;;;;;;;;-140.72;100.00;52979.34;5033560;28;19917;-68
2023/04/24 06:27:37;;;;;;;;;;;;;;;-140.72;100.00;53040.22;5033556;28;20003;-69
2023/04/24 06:30:02;;;;;;;;;;;;;;;-140.72;100.00;53009.78;5043014;28;20039;-69
2023/04/24 06:32:28;;;;;;;;;;;;;;;-140.72;100.00;53032.13;5033389;28;19917;-69
2023/04/24 06:34:53;;;;;;;;;;;;;;;-140.72;100.00;53015.88;5031405;28;20351;-69
2023/04/24 06:37:18;;;;;;;;;;;;;;;-140.72;100.00;53026.03;5021644;28;19982;-69
2023/04/24 06:39:44;;;;;;;;;;;;;;;-140.72;100.00;53011.81;5031919;28;19917;-69
2023/04/24 06:42:09;;;;;;;;;;;;;;;-140.72;100.00;53001.66;5023304;28;20005;-69
2023/04/24 06:44:40;;;;;;;;;;;;;;;-140.72;100.00;52971.22;5029137;28;19937;-68
2023/04/24 06:47:05;;;;;;;;;;;;;;;-140.72;100.00;52973.25;5068220;28;19915;-69
2023/04/24 06:49:30;;;;;;;;;;;;;;;-140.72;100.00;52983.41;5049301;28;20299;-71
2023/04/24 06:51:56;;;;;;;;;;;;;;;-140.72;100.00;52971.22;5031075;28;19927;-73
2023/04/24 06:54:21;;;;;;;;;;;;;;;-140.72;100.00;52985.44;5031315;28;20352;-73
2023/04/24 06:56:47;;;;;;;;;;;;;;;-140.72;100.00;52991.53;5031948;28;20379;-73
2023/04/24 06:59:12;;;;;;;;;;;;;;;-140.72;100.00;53003.69;5031420;28;19921;-72
2023/04/24 07:01:38;;;;;;;;;;;;;;;-140.72;100.00;53013.84;5026118;28;20259;-73
2023/04/24 07:04:03;;;;;;;;;;;;;;;-140.72;100.00;52965.16;5024422;27;20291;-73
2023/04/24 07:06:30;;;;;;;;;;;;;;;-140.72;100.00;52975.28;5035680;28;20008;-73
2023/04/24 07:08:56;;;;;;;;;;;;;;;-140.72;100.00;52979.34;5025950;28;19917;-73
2023/04/24 07:11:21;;;;;;;;;;;;;;;-140.72;100.00;52969.19;5030340;28;20302;-72
2023/04/24 07:13:47;;;;;;;;;;;;;;;-140.72;100.00;53003.69;5030164;28;19925;-73
2023/04/24 07:16:12;;;;;;;;;;;;;;;-140.72;100.00;52991.53;5029495;28;20312;-73
2023/04/24 07:18:39;;;;;;;;;;;;;;;-140.72;100.00;52999.66;5028779;28;20004;-74
2023/04/24 07:21:04;;;;;;;;;;;;;;;-140.72;100.00;53007.75;5052399;28;19927;-73
2023/04/24 07:23:30;;;;;;;;;;;;;;;-140.72;100.00;52967.16;5046484;28;20303;-73
2023/04/24 07:25:55;;;;;;;;;;;;;;;-140.72;100.00;52991.53;5068925;28;19959;-73
2023/04/24 07:28:21;;;;;;;;;;;;;;;-140.72;100.00;52965.16;5037783;28;20447;-73
2023/04/24 07:30:46;;;;;;;;;;;;;;;-140.72;100.00;52950.94;5018407;28;20106;-72
2023/04/24 07:33:13;;;;;;;;;;;;;;;-140.72;100.00;52971.22;5025716;28;19929;-71
2023/04/24 07:35:38;;;;;;;;;;;;;;;-140.72;100.00;53007.75;5032882;28;20276;-70
2023/04/24 07:38:03;;;;;;;;;;;;;;;-140.72;100.00;52955.00;5045827;28;19923;-71
2023/04/24 07:40:28;;;;;;;;;;;;;;;-140.72;100.00;52965.16;5029568;28;20272;-70
2023/04/24 07:42:54;;;;;;;;;;;;;;;-140.72;100.00;52944.84;5029022;27;19951;-68
2023/04/24 07:45:19;;;;;;;;;;;;;;;-140.72;100.00;52987.47;5036442;28;19929;-74
2023/04/24 07:47:45;;;;;;;;;;;;;;;-140.72;100.00;52942.81;5027801;28;19928;-69
2023/04/24 07:50:11;;;;;;;;;;;;;;;-140.72;100.00;52973.25;5033046;27;20402;-72
2023/04/24 07:52:36;;;;;;;;;;;;;;;-140.72;100.00;52975.28;5028693;28;19921;-68
2023/04/24 07:55:02;;;;;;;;;;;;;;;-140.72;100.00;52932.66;5025664;28;20299;-68
2023/04/24 07:57:27;;;;;;;;;;;;;;;-140.72;100.00;52975.28;5026346;28;19970;-68
2023/04/24 07:59:52;;;;;;;;;;;;;;;-140.72;100.00;52930.66;5025926;28;20000;-68
2023/04/24 08:02:17;;;;;;;;;;;;;;;-140.72;100.00;53007.75;5026591;28;19921;-68
2023/04/24 08:04:43;;;;;;;;;;;;;;;-140.72;100.00;52983.41;5039745;27;19929;-68
2023/04/24 08:07:08;;;;;;;;;;;;;;;-140.72;100.00;52981.38;5060816;28;19925;-68
2023/04/24 08:09:33;;;;;;;;;;;;;;;-140.72;100.00;52973.25;5026654;28;20407;-69
2023/04/24 08:11:59;;;;;;;;;;;;;;;-140.72;100.00;52969.19;5028060;28;20291;-68
2023/04/24 08:14:24;;;;;;;;;;;;;;;-140.72;100.00;52971.22;5020647;28;20367;-68
2023/04/24 08:16:50;;;;;;;;;;;;;;;-140.72;100.00;52993.56;5057089;28;20358;-68
2023/04/24 08:19:15;;;;;;;;;;;;;;;-140.72;100.00;52946.88;5053761;27;20302;-71
2023/04/24 08:21:40;;;;;;;;;;;;;;;-140.72;100.00;52967.16;5052991;28;20389;-71
2023/04/24 08:24:07;;;;;;;;;;;;;;;-140.72;100.00;53007.75;5014827;28;21268;-69
2023/04/24 08:26:32;;;;;;;;;;;;;;;-140.72;100.00;52983.41;5051948;28;20382;-68
2023/04/24 08:28:58;;;;;;;;;;;;;;;-140.72;100.00;52959.06;5028785;28;19986;-70
2023/04/24 08:31:24;;;;;;;;;;;;;;;-140.72;100.00;52969.19;5028568;28;19956;-71
2023/04/24 08:33:50;;;;;;;;;;;;;;;-140.72;100.00;52914.41;5026200;28;19960;-71
2023/04/24 08:36:15;;;;;;;;;;;;;;;-140.72;100.00;52957.03;5022927;28;19957;-70
2023/04/24 08:38:41;;;;;;;;;;;;;;;-140.72;100.00;52995.59;5045705;28;19964;-69
2023/04/24 08:41:07;;;;;;;;;;;;;;;-140.72;100.00;52906.28;5026154;28;19921;-71
2023/04/24 08:43:33;;;;;;;;;;;;;;;-140.72;100.00;52950.94;5022321;28;19928;-70
2023/04/24 08:45:59;;;;;;;;;;;;;;;-140.72;100.00;52900.19;5028998;28;19925;-70
2023/04/24 08:48:25;;;;;;;;;;;;;;;-140.72;100.00;52969.19;5027292;28;19921;-70
2023/04/24 08:50:50;;;;;;;;;;;;;;;-140.72;100.00;52922.53;5027326;28;19926;-71
2023/04/24 08:53:17;;;;;;;;;;;;;;;-140.72;100.00;52946.88;5033996;28;19944;-72
2023/04/24 08:55:43;;;;;;;;;;;;;;;-140.72;100.00;52957.03;5014810;28;19922;-70
2023/04/24 08:58:09;;;;;;;;;;;;;;;-140.72;100.00;52934.69;5029345;28;19932;-70
2023/04/24 09:00:34;;;;;;;;;;;;;;;-140.72;100.00;52946.88;5023008;28;20301;-70
2023/04/24 09:03:00;;;;;;;;;;;;;;;-140.72;100.00;52924.56;5023592;28;19937;-69
2023/04/24 09:05:27;;;;;;;;;;;;;;;-140.72;100.00;52942.81;5020523;28;20296;-69
2023/04/24 09:07:56;;;;;;;;;;;;;;;-140.72;100.00;52950.94;5017511;28;19928;-68
2023/04/24 09:10:22;;;;;;;;;;;;;;;-140.72;100.00;52979.34;5023075;28;19926;-69
2023/04/24 09:12:50;;;;;;;;;;;;;;;-140.72;100.00;53003.69;5019843;28;21370;-68
2023/04/24 09:15:15;;;;;;;;;;;;;;;-140.72;100.00;52973.25;5020478;28;19925;-73
2023/04/24 09:17:41;;;;;;;;;;;;;;;-140.72;100.00;52940.78;5014557;28;19978;-70
2023/04/24 09:20:06;;;;;;;;;;;;;;;-140.72;100.00;52948.91;5020494;28;19925;-68
2023/04/24 09:22:31;;;;;;;;;;;;;;;-140.72;100.00;52900.19;5020648;28;19921;-68
2023/04/24 09:25:05;;;;;;;;;;;;;;;-140.72;100.00;52967.16;5026203;28;19970;-69
2023/04/24 09:27:30;;;;;;;;;;;;;;;-140.72;100.00;52928.63;5034040;28;20304;-69
2023/04/24 09:29:56;;;;;;;;;;;;;;;-140.72;100.00;52910.34;5022871;28;19924;-70
2023/04/24 09:32:22;;;;;;;;;;;;;;;-140.72;100.00;52971.22;5034835;28;19926;-69
2023/04/24 09:34:47;;;;;;;;;;;;;;;-140.72;100.00;52879.91;5025931;28;19921;-70
2023/04/24 09:37:26;;;;;;;;;;;;;;;-140.72;100.00;52920.50;5023503;28;19929;-69
2023/04/24 09:40:14;;;;;;;;;;;;;;;-140.72;100.00;52918.47;5028911;28;19940;-69
2023/04/24 09:42:43;;;;;;;;;;;;;;;-140.72;100.00;52896.16;5016359;28;20442;-69
2023/04/24 09:45:10;;;;;;;;;;;;;;;-140.72;100.00;52831.19;5021921;28;19974;-69
2023/04/24 09:47:36;;;;;;;;;;;;;;;-140.72;100.00;52808.88;5025567;28;19936;-69
2023/04/24 09:50:09;;;;;;;;;;;;;;;-140.72;100.00;52879.91;5023875;28;19933;-68
2023/04/24 09:52:34;;;;;;;;;;;;;;;-140.72;100.00;52859.63;5028693;28;19921;-68
2023/04/24 09:54:59;;;;;;;;;;;;;;;-140.72;100.00;52863.66;5020640;28;19917;-68
2023/04/24 09:57:24;;;;;;;;;;;;;;;-140.72;100.00;52902.22;5024246;28;19926;-69
2023/04/24 09:59:52;;;;;;;;;;;;;;;-140.72;100.00;52881.94;5027846;28;19981;-68
2023/04/24 10:02:19;;;;;;;;;;;;;;;-140.72;100.00;52892.09;5021877;28;19975;-69
2023/04/24 10:04:53;;;;;;;;;;;;;;;-140.72;100.00;52896.16;5029253;28;19921;-69
2023/04/24 10:07:19;;;;;;;;;;;;;;;-140.72;100.00;52879.91;5026314;28;20368;-70
2023/04/24 10:09:44;;;;;;;;;;;;;;;-140.72;100.00;52908.31;5021152;28;19928;-69
2023/04/24 10:12:10;;;;;;;;;;;;;;;-140.72;100.00;52900.19;5030341;27;19921;-69
2023/04/24 10:14:36;;;;;;;;;;;;;;;-140.72;100.00;52938.75;5023452;28;19921;-70
2023/04/24 10:17:01;;;;;;;;;;;;;;;-140.72;100.00;52918.47;5026920;28;19929;-69
2023/04/24 10:19:27;;;;;;;;;;;;;;;-140.72;100.00;52894.13;5026338;28;19921;-70
2023/04/24 10:21:54;;;;;;;;;;;;;;;-140.72;100.00;52894.13;5022772;28;19922;-70
2023/04/24 10:24:22;;;;;;;;;;;;;;;-140.72;100.00;52938.75;5031822;28;19925;-69
2023/04/24 10:26:48;;;;;;;;;;;;;;;-140.72;100.00;52906.28;5024366;28;19921;-69
2023/04/24 10:29:15;;;;;;;;;;;;;;;-140.72;100.00;52928.63;5027170;28;19939;-69
2023/04/24 10:31:40;;;;;;;;;;;;;;;-140.72;100.00;52892.09;5027255;28;19921;-69
2023/04/24 10:34:06;;;;;;;;;;;;;;;-140.72;100.00;52910.34;5049173;28;19935;-69
2023/04/24 10:36:32;;;;;;;;;;;;;;;-140.72;100.00;52928.63;5026542;28;19928;-69
2023/04/24 10:38:59;;;;;;;;;;;;;;;-140.72;100.00;52879.91;5022442;28;19921;-69
2023/04/24 10:41:25;;;;;;;;;;;;;;;-140.72;100.00;52914.41;5026718;28;19921;-69
2023/04/24 10:44:10;;;;;;;;;;;;;;;-140.72;100.00;52900.19;5031984;28;19926;-70
2023/04/24 10:46:36;;;;;;;;;;;;;;;-140.72;100.00;52902.22;5025434;28;20287;-70
2023/04/24 10:49:11;;;;;;;;;;;;;;;-140.72;100.00;52875.84;5048364;28;19925;-70
2023/04/24 10:51:45;;;;;;;;;;;;;;;-140.72;100.00;52902.22;5025562;28;19925;-71
2023/04/24 10:54:25;;;;;;;;;;;;;;;-140.72;100.00;52857.59;5028993;28;19987;-71
2023/04/24 10:56:51;;;;;;;;;;;;;;;-140.72;100.00;52881.94;5025439;28;19929;-70
2023/04/24 10:59:27;;;;;;;;;;;;;;;-140.72;100.00;52853.53;5027546;28;19947;-71
2023/04/24 11:01:53;;;;;;;;;;;;;;;-140.72;100.00;52849.47;5020047;28;19921;-68
2023/04/24 11:04:28;;;;;;;;;;;;;;;-140.72;100.00;52867.72;5028439;28;20021;-68
2023/04/24 11:06:54;;;;;;;;;;;;;;;-140.72;100.00;52892.09;5020730;27;19929;-69
2023/04/24 11:09:20;;;;;;;;;;;;;;;-140.72;100.00;52881.94;5026064;27;19982;-68
2023/04/24 11:11:46;;;;;;;;;;;;;;;-140.72;100.00;52888.03;5025335;28;19964;-68
2023/04/24 11:14:14;;;;;;;;;;;;;;;-140.72;100.00;52886.00;5020657;28;21194;-69
2023/04/24 11:16:44;;;;;;;;;;;;;;;-140.72;100.00;52845.41;5022174;28;20500;-69
2023/04/24 11:19:09;;;;;;;;;;;;;;;-140.72;100.00;52827.16;5025093;28;20236;-69
2023/04/24 11:21:37;;;;;;;;;;;;;;;-140.72;100.00;52833.22;5023271;28;19921;-69
2023/04/24 11:24:22;;;;;;;;;;;;;;;-140.72;100.00;52849.47;5018066;28;19997;-70
2023/04/24 11:26:47;;;;;;;;;;;;;;;-140.72;100.00;52814.97;5025815;28;20420;-70
2023/04/24 11:29:13;;;;;;;;;;;;;;;-140.72;100.00;52776.41;5024565;28;19969;-70
2023/04/24 11:31:39;;;;;;;;;;;;;;;-140.72;100.00;52768.28;5025343;28;21191;-70
2023/04/24 11:34:09;;;;;;;;;;;;;;;-140.72;60.32;52814.97;5017564;28;20387;-70
2023/04/24 11:36:35;;;;;;;;;;;;;;;-140.72;63.98;52792.66;5018803;28;20309;-70
2023/04/24 11:39:00;;;;;;;;;;;;;;;-140.72;42.93;52796.72;5031999;28;19929;-70
2023/04/24 11:41:26;;;;;;;;;;;;;;;-140.72;43.77;52827.16;5023298;28;19917;-70
2023/04/24 11:43:52;;;;;;;;;;;;;;;-140.72;35.33;52768.28;5020251;28;19922;-70
2023/04/24 11:46:17;;;;;;;;;;;;;;;-140.72;41.93;52794.69;5038977;28;19922;-70
2023/04/24 11:48:45;;;;;;;;;;;;;;;-140.72;28.60;52772.34;5023417;28;19924;-70
2023/04/24 11:51:11;;;;;;;;;;;;;;;-140.72;9.25;52733.78;5037942;27;19966;-70
2023/04/24 11:53:37;;;;;;;;;;;;;;;-140.72;0.00;52750.03;5033254;27;19917;-69
2023/04/24 11:56:03;;;;;;;;;;;;;;;-140.72;0.00;52721.63;5024296;28;20012;-69
2023/04/24 11:58:28;;;;;;;;;;;;;;;-140.72;0.00;52739.88;5027020;28;20341;-70
2023/04/24 12:00:57;;;;;;;;;;;;;;;-140.72;0.00;52743.94;5034310;28;19925;-69
2023/04/24 12:03:23;;;;;;;;;;;;;;;-140.72;0.00;52800.75;5019689;28;19917;-71
2023/04/24 12:05:48;;;;;;;;;;;;;;;-140.72;0.00;52794.69;5021800;28;19966;-70
2023/04/24 12:08:26;;;;;;;;;;;;;;;-140.72;0.00;52630.31;5028324;28;19943;-70
2023/04/24 12:10:52;;;;;;;;;;;;;;;-140.72;0.00;52652.63;5029446;28;19928;-69
2023/04/24 12:13:17;;;;;;;;;;;;;;;-140.72;0.00;52707.41;5028575;28;20391;-70